sensor_id;sensor_type;location;lat;lon;timestamp;pressure;altitude;pressure_sealevel;temperature;humidity
76864;BME280;65834;52.364;9.754;2023-05-20T00:00:56;101860.78;;;14.40;50.53
76864;BME280;65834;52.364;9.754;2023-05-20T00:03:25;101867.56;;;14.44;50.47
76864;BME280;65834;52.364;9.754;2023-05-20T00:05:55;101858.06;;;14.40;50.63
76864;BME280;65834;52.364;9.754;2023-05-20T00:08:25;101858.09;;;14.32;50.77
76864;BME280;65834;52.364;9.754;2023-05-20T00:10:54;101866.06;;;14.41;50.58
76864;BME280;65834;52.364;9.754;2023-05-20T00:13:26;101862.34;;;14.34;50.92
76864;BME280;65834;52.364;9.754;2023-05-20T00:15:56;101852.50;;;14.33;50.85
76864;BME280;65834;52.364;9.754;2023-05-20T00:18:25;101852.88;;;14.22;51.32
76864;BME280;65834;52.364;9.754;2023-05-20T00:20:55;101849.16;;;14.23;51.27
76864;BME280;65834;52.364;9.754;2023-05-20T00:23:24;101852.41;;;14.19;51.58
76864;BME280;65834;52.364;9.754;2023-05-20T00:25:54;101851.38;;;14.20;51.33
76864;BME280;65834;52.364;9.754;2023-05-20T00:28:28;101851.91;;;14.15;51.44
76864;BME280;65834;52.364;9.754;2023-05-20T00:30:58;101851.44;;;14.11;51.61
76864;BME280;65834;52.364;9.754;2023-05-20T00:33:28;101849.69;;;13.96;52.14
76864;BME280;65834;52.364;9.754;2023-05-20T00:35:57;101850.47;;;14.04;51.62
76864;BME280;65834;52.364;9.754;2023-05-20T00:38:27;101845.56;;;14.00;51.76
76864;BME280;65834;52.364;9.754;2023-05-20T00:40:56;101843.81;;;14.07;51.47
76864;BME280;65834;52.364;9.754;2023-05-20T00:43:26;101836.00;;;14.04;51.84
76864;BME280;65834;52.364;9.754;2023-05-20T00:45:59;101836.44;;;13.93;52.02
76864;BME280;65834;52.364;9.754;2023-05-20T00:48:34;101837.66;;;13.90;52.06
76864;BME280;65834;52.364;9.754;2023-05-20T00:51:09;101838.66;;;13.89;51.88
76864;BME280;65834;52.364;9.754;2023-05-20T00:53:39;101845.81;;;13.90;52.04
76864;BME280;65834;52.364;9.754;2023-05-20T00:56:10;101840.41;;;13.82;52.28
76864;BME280;65834;52.364;9.754;2023-05-20T00:58:40;101835.44;;;13.86;51.98
76864;BME280;65834;52.364;9.754;2023-05-20T01:01:12;101844.63;;;13.85;51.78
76864;BME280;65834;52.364;9.754;2023-05-20T01:03:42;101845.69;;;13.76;52.24
76864;BME280;65834;52.364;9.754;2023-05-20T01:06:11;101853.63;;;13.85;52.10
76864;BME280;65834;52.364;9.754;2023-05-20T01:08:41;101842.84;;;13.69;52.42
76864;BME280;65834;52.364;9.754;2023-05-20T01:11:13;101842.25;;;13.82;51.86
76864;BME280;65834;52.364;9.754;2023-05-20T01:13:45;101840.75;;;13.79;51.56
76864;BME280;65834;52.364;9.754;2023-05-20T01:16:19;101838.94;;;13.72;52.00
76864;BME280;65834;52.364;9.754;2023-05-20T01:18:54;101843.34;;;13.73;51.83
76864;BME280;65834;52.364;9.754;2023-05-20T01:21:29;101841.88;;;13.62;52.34
76864;BME280;65834;52.364;9.754;2023-05-20T01:24:01;101840.81;;;13.71;52.03
76864;BME280;65834;52.364;9.754;2023-05-20T01:26:32;101839.66;;;13.57;52.53
76864;BME280;65834;52.364;9.754;2023-05-20T01:29:04;101826.53;;;13.69;51.81
76864;BME280;65834;52.364;9.754;2023-05-20T01:31:35;101834.22;;;13.57;52.54
76864;BME280;65834;52.364;9.754;2023-05-20T01:34:06;101827.28;;;13.55;51.99
76864;BME280;65834;52.364;9.754;2023-05-20T01:36:37;101834.06;;;13.59;52.04
76864;BME280;65834;52.364;9.754;2023-05-20T01:39:10;101829.16;;;13.54;52.34
76864;BME280;65834;52.364;9.754;2023-05-20T01:41:40;101825.94;;;13.51;52.43
76864;BME280;65834;52.364;9.754;2023-05-20T01:44:10;101824.81;;;13.37;52.58
76864;BME280;65834;52.364;9.754;2023-05-20T01:46:39;101826.84;;;13.43;52.21
76864;BME280;65834;52.364;9.754;2023-05-20T01:49:09;101826.72;;;13.29;52.77
76864;BME280;65834;52.364;9.754;2023-05-20T01:51:38;101821.06;;;13.38;52.61
76864;BME280;65834;52.364;9.754;2023-05-20T01:54:10;101822.47;;;13.34;52.12
76864;BME280;65834;52.364;9.754;2023-05-20T01:56:40;101815.16;;;13.35;52.27
76864;BME280;65834;52.364;9.754;2023-05-20T01:59:10;101819.03;;;13.40;52.17
76864;BME280;65834;52.364;9.754;2023-05-20T02:01:40;101818.22;;;13.32;52.24
76864;BME280;65834;52.364;9.754;2023-05-20T02:04:09;101811.44;;;13.28;52.95
76864;BME280;65834;52.364;9.754;2023-05-20T02:06:39;101808.72;;;13.28;52.45
76864;BME280;65834;52.364;9.754;2023-05-20T02:09:11;101809.38;;;13.38;52.14
76864;BME280;65834;52.364;9.754;2023-05-20T02:11:41;101812.78;;;13.32;52.45
76864;BME280;65834;52.364;9.754;2023-05-20T02:14:11;101817.94;;;13.19;52.69
76864;BME280;65834;52.364;9.754;2023-05-20T02:16:40;101822.31;;;13.20;52.49
76864;BME280;65834;52.364;9.754;2023-05-20T02:19:12;101814.66;;;13.31;52.32
76864;BME280;65834;52.364;9.754;2023-05-20T02:21:49;101817.25;;;13.17;52.71
76864;BME280;65834;52.364;9.754;2023-05-20T02:24:22;101814.72;;;13.15;52.88
76864;BME280;65834;52.364;9.754;2023-05-20T02:26:52;101805.22;;;13.11;52.96
76864;BME280;65834;52.364;9.754;2023-05-20T02:29:23;101810.47;;;13.04;53.35
76864;BME280;65834;52.364;9.754;2023-05-20T02:31:52;101815.91;;;13.13;52.95
76864;BME280;65834;52.364;9.754;2023-05-20T02:34:22;101813.34;;;13.11;52.73
76864;BME280;65834;52.364;9.754;2023-05-20T02:36:52;101809.28;;;13.15;52.32
76864;BME280;65834;52.364;9.754;2023-05-20T02:39:24;101807.38;;;13.07;52.59
76864;BME280;65834;52.364;9.754;2023-05-20T02:41:54;101813.16;;;13.04;52.86
76864;BME280;65834;52.364;9.754;2023-05-20T02:44:24;101822.31;;;13.20;52.57
76864;BME280;65834;52.364;9.754;2023-05-20T02:46:55;101824.38;;;13.18;52.47
76864;BME280;65834;52.364;9.754;2023-05-20T02:49:24;101822.00;;;13.15;52.49
76864;BME280;65834;52.364;9.754;2023-05-20T02:51:54;101828.13;;;12.92;53.13
76864;BME280;65834;52.364;9.754;2023-05-20T02:54:26;101820.50;;;13.04;52.99
76864;BME280;65834;52.364;9.754;2023-05-20T02:56:56;101817.09;;;13.02;52.90
76864;BME280;65834;52.364;9.754;2023-05-20T02:59:26;101823.88;;;13.14;52.80
76864;BME280;65834;52.364;9.754;2023-05-20T03:01:56;101814.41;;;13.10;52.86
76864;BME280;65834;52.364;9.754;2023-05-20T03:04:25;101811.84;;;13.00;53.10
76864;BME280;65834;52.364;9.754;2023-05-20T03:06:56;101801.09;;;13.23;52.50
76864;BME280;65834;52.364;9.754;2023-05-20T03:09:30;101813.38;;;13.03;53.10
76864;BME280;65834;52.364;9.754;2023-05-20T03:12:00;101818.81;;;12.95;53.20
76864;BME280;65834;52.364;9.754;2023-05-20T03:14:29;101815.25;;;12.94;53.46
76864;BME280;65834;52.364;9.754;2023-05-20T03:16:59;101816.25;;;13.01;53.00
76864;BME280;65834;52.364;9.754;2023-05-20T03:19:29;101817.78;;;13.04;53.27
76864;BME280;65834;52.364;9.754;2023-05-20T03:21:58;101812.69;;;13.09;52.98
76864;BME280;65834;52.364;9.754;2023-05-20T03:24:33;101806.56;;;12.99;53.40
76864;BME280;65834;52.364;9.754;2023-05-20T03:27:03;101809.44;;;13.05;53.16
76864;BME280;65834;52.364;9.754;2023-05-20T03:29:33;101811.03;;;12.92;53.35
76864;BME280;65834;52.364;9.754;2023-05-20T03:32:04;101821.53;;;12.95;53.51
76864;BME280;65834;52.364;9.754;2023-05-20T03:34:36;101820.16;;;13.07;53.24
76864;BME280;65834;52.364;9.754;2023-05-20T03:37:06;101815.75;;;12.98;53.34
76864;BME280;65834;52.364;9.754;2023-05-20T03:39:39;101814.56;;;12.92;53.80
76864;BME280;65834;52.364;9.754;2023-05-20T03:42:08;101812.53;;;12.94;53.66
76864;BME280;65834;52.364;9.754;2023-05-20T03:44:38;101814.22;;;13.03;53.54
76864;BME280;65834;52.364;9.754;2023-05-20T03:47:07;101822.38;;;13.03;53.44
76864;BME280;65834;52.364;9.754;2023-05-20T03:49:37;101820.84;;;13.01;53.60
76864;BME280;65834;52.364;9.754;2023-05-20T03:52:07;101822.38;;;13.03;53.63
76864;BME280;65834;52.364;9.754;2023-05-20T03:54:39;101825.25;;;13.02;53.82
76864;BME280;65834;52.364;9.754;2023-05-20T03:57:09;101827.28;;;13.00;53.83
76864;BME280;65834;52.364;9.754;2023-05-20T03:59:39;101829.00;;;13.01;54.17
76864;BME280;65834;52.364;9.754;2023-05-20T04:02:08;101838.31;;;13.07;54.02
76864;BME280;65834;52.364;9.754;2023-05-20T04:04:38;101836.09;;;13.02;53.97
76864;BME280;65834;52.364;9.754;2023-05-20T04:07:08;101832.38;;;13.03;54.20
76864;BME280;65834;52.364;9.754;2023-05-20T04:09:41;101831.88;;;12.99;54.36
76864;BME280;65834;52.364;9.754;2023-05-20T04:12:11;101838.16;;;13.00;54.50
76864;BME280;65834;52.364;9.754;2023-05-20T04:14:41;101836.59;;;13.14;53.63
76864;BME280;65834;52.364;9.754;2023-05-20T04:17:11;101823.38;;;13.11;53.94
76864;BME280;65834;52.364;9.754;2023-05-20T04:19:40;101826.94;;;13.11;54.00
76864;BME280;65834;52.364;9.754;2023-05-20T04:22:11;101824.56;;;13.08;54.30
76864;BME280;65834;52.364;9.754;2023-05-20T04:24:43;101826.75;;;13.04;54.32
76864;BME280;65834;52.364;9.754;2023-05-20T04:27:12;101819.47;;;13.05;54.13
76864;BME280;65834;52.364;9.754;2023-05-20T04:29:42;101820.50;;;13.12;54.15
76864;BME280;65834;52.364;9.754;2023-05-20T04:32:13;101824.56;;;13.08;54.35
76864;BME280;65834;52.364;9.754;2023-05-20T04:34:43;101827.78;;;13.03;54.51
76864;BME280;65834;52.364;9.754;2023-05-20T04:37:14;101832.22;;;13.13;54.10
76864;BME280;65834;52.364;9.754;2023-05-20T04:39:47;101823.88;;;13.14;54.06
76864;BME280;65834;52.364;9.754;2023-05-20T04:42:16;101818.44;;;13.22;53.78
76864;BME280;65834;52.364;9.754;2023-05-20T04:44:48;101824.38;;;13.26;53.45
76864;BME280;65834;52.364;9.754;2023-05-20T04:47:17;101807.88;;;13.27;53.79
76864;BME280;65834;52.364;9.754;2023-05-20T04:49:47;101804.84;;;13.22;53.89
76864;BME280;65834;52.364;9.754;2023-05-20T04:52:16;101805.50;;;13.24;54.11
76864;BME280;65834;52.364;9.754;2023-05-20T04:54:49;101806.16;;;13.26;53.97
76864;BME280;65834;52.364;9.754;2023-05-20T04:57:18;101810.78;;;13.18;54.59
76864;BME280;65834;52.364;9.754;2023-05-20T04:59:48;101806.50;;;13.31;54.17
76864;BME280;65834;52.364;9.754;2023-05-20T05:02:18;101809.22;;;13.31;54.07
76864;BME280;65834;52.364;9.754;2023-05-20T05:04:47;101810.44;;;13.29;54.18
76864;BME280;65834;52.364;9.754;2023-05-20T05:07:17;101807.53;;;13.30;54.50
76864;BME280;65834;52.364;9.754;2023-05-20T05:09:50;101799.50;;;13.37;54.16
76864;BME280;65834;52.364;9.754;2023-05-20T05:12:20;101806.47;;;13.39;54.15
76864;BME280;65834;52.364;9.754;2023-05-20T05:14:50;101800.53;;;13.36;54.40
76864;BME280;65834;52.364;9.754;2023-05-20T05:17:19;101800.38;;;13.37;54.48
76864;BME280;65834;52.364;9.754;2023-05-20T05:19:49;101814.25;;;13.42;54.22
76864;BME280;65834;52.364;9.754;2023-05-20T05:22:18;101810.34;;;13.45;54.10
76864;BME280;65834;52.364;9.754;2023-05-20T05:24:50;101804.75;;;13.46;54.58
76864;BME280;65834;52.364;9.754;2023-05-20T05:27:21;101794.38;;;13.50;54.53
76864;BME280;65834;52.364;9.754;2023-05-20T05:29:51;101797.38;;;13.55;54.06
76864;BME280;65834;52.364;9.754;2023-05-20T05:32:20;101793.66;;;13.48;54.78
76864;BME280;65834;52.364;9.754;2023-05-20T05:34:50;101797.91;;;13.50;54.80
76864;BME280;65834;52.364;9.754;2023-05-20T05:37:20;101803.69;;;13.47;55.12
76864;BME280;65834;52.364;9.754;2023-05-20T05:39:53;101793.66;;;13.56;54.77
76864;BME280;65834;52.364;9.754;2023-05-20T05:42:22;101790.75;;;13.57;54.94
76864;BME280;65834;52.364;9.754;2023-05-20T05:44:53;101793.47;;;13.57;55.30
76864;BME280;65834;52.364;9.754;2023-05-20T05:47:22;101798.53;;;13.61;55.34
76864;BME280;65834;52.364;9.754;2023-05-20T05:49:57;101794.97;;;13.60;55.12
76864;BME280;65834;52.364;9.754;2023-05-20T05:52:30;101797.22;;;13.56;54.87
76864;BME280;65834;52.364;9.754;2023-05-20T05:55:04;101803.44;;;13.65;54.88
76864;BME280;65834;52.364;9.754;2023-05-20T05:57:34;101802.09;;;13.61;55.31
76864;BME280;65834;52.364;9.754;2023-05-20T06:00:05;101796.66;;;13.61;55.30
76864;BME280;65834;52.364;9.754;2023-05-20T06:02:44;101798.69;;;13.67;55.23
76864;BME280;65834;52.364;9.754;2023-05-20T06:05:27;101800.75;;;13.57;55.83
76864;BME280;65834;52.364;9.754;2023-05-20T06:07:57;101803.63;;;13.64;55.62
76864;BME280;65834;52.364;9.754;2023-05-20T06:10:29;101795.94;;;13.67;55.66
76864;BME280;65834;52.364;9.754;2023-05-20T06:12:58;101793.72;;;13.71;55.35
76864;BME280;65834;52.364;9.754;2023-05-20T06:15:28;101797.97;;;13.73;55.65
76864;BME280;65834;52.364;9.754;2023-05-20T06:17:58;101793.19;;;13.75;55.68
76864;BME280;65834;52.364;9.754;2023-05-20T06:20:27;101793.88;;;13.77;55.40
76864;BME280;65834;52.364;9.754;2023-05-20T06:22:57;101789.72;;;13.81;55.81
76864;BME280;65834;52.364;9.754;2023-05-20T06:25:38;101790.59;;;13.82;55.41
76864;BME280;65834;52.364;9.754;2023-05-20T06:28:08;101791.28;;;13.84;55.59
76864;BME280;65834;52.364;9.754;2023-05-20T06:30:38;101799.72;;;13.89;55.36
76864;BME280;65834;52.364;9.754;2023-05-20T06:33:08;101797.00;;;13.89;55.89
76864;BME280;65834;52.364;9.754;2023-05-20T06:35:38;101796.94;;;13.97;55.46
76864;BME280;65834;52.364;9.754;2023-05-20T06:38:07;101794.59;;;13.94;55.28
76864;BME280;65834;52.364;9.754;2023-05-20T06:40:39;101796.13;;;13.96;55.78
76864;BME280;65834;52.364;9.754;2023-05-20T06:43:09;101794.91;;;13.99;55.69
76864;BME280;65834;52.364;9.754;2023-05-20T06:45:46;101796.06;;;14.04;55.79
76864;BME280;65834;52.364;9.754;2023-05-20T06:48:28;101794.97;;;14.13;55.92
76864;BME280;65834;52.364;9.754;2023-05-20T06:50:58;101799.38;;;14.15;55.61
76864;BME280;65834;52.364;9.754;2023-05-20T06:53:29;101786.91;;;14.20;56.21
76864;BME280;65834;52.364;9.754;2023-05-20T06:56:01;101786.00;;;14.28;55.50
76864;BME280;65834;52.364;9.754;2023-05-20T06:58:31;101790.63;;;14.27;56.44
76864;BME280;65834;52.364;9.754;2023-05-20T07:01:01;101785.81;;;14.29;55.91
76864;BME280;65834;52.364;9.754;2023-05-20T07:03:30;101782.72;;;14.32;55.61
76864;BME280;65834;52.364;9.754;2023-05-20T07:06:00;101784.81;;;14.30;55.39
76864;BME280;65834;52.364;9.754;2023-05-20T07:08:30;101775.44;;;14.33;56.14
76864;BME280;65834;52.364;9.754;2023-05-20T07:11:03;101775.25;;;14.34;56.39
76864;BME280;65834;52.364;9.754;2023-05-20T07:13:32;101782.44;;;14.50;55.56
76864;BME280;65834;52.364;9.754;2023-05-20T07:16:04;101775.75;;;14.52;55.49
76864;BME280;65834;52.364;9.754;2023-05-20T07:18:36;101778.78;;;14.57;54.85
76864;BME280;65834;52.364;9.754;2023-05-20T07:21:06;101763.09;;;14.59;55.07
76864;BME280;65834;52.364;9.754;2023-05-20T07:23:53;101762.56;;;14.64;54.81
76864;BME280;65834;52.364;9.754;2023-05-20T07:26:25;101774.09;;;14.66;54.72
76864;BME280;65834;52.364;9.754;2023-05-20T07:28:59;101772.59;;;14.63;54.66
76864;BME280;65834;52.364;9.754;2023-05-20T07:31:28;101765.72;;;14.68;54.54
76864;BME280;65834;52.364;9.754;2023-05-20T07:33:58;101766.03;;;14.73;54.58
76864;BME280;65834;52.364;9.754;2023-05-20T07:36:28;101768.28;;;14.69;54.69
76864;BME280;65834;52.364;9.754;2023-05-20T07:39:02;101762.09;;;14.75;54.05
76864;BME280;65834;52.364;9.754;2023-05-20T07:41:41;101766.97;;;14.80;54.26
76864;BME280;65834;52.364;9.754;2023-05-20T07:44:11;101764.06;;;14.81;53.95
76864;BME280;65834;52.364;9.754;2023-05-20T07:46:46;101754.88;;;14.82;53.81
76864;BME280;65834;52.364;9.754;2023-05-20T07:49:17;101760.88;;;14.78;54.18
76864;BME280;65834;52.364;9.754;2023-05-20T07:51:47;101758.78;;;14.80;53.83
76864;BME280;65834;52.364;9.754;2023-05-20T07:54:18;101763.41;;;14.79;53.54
76864;BME280;65834;52.364;9.754;2023-05-20T07:56:53;101752.91;;;14.91;53.52
76864;BME280;65834;52.364;9.754;2023-05-20T07:59:22;101740.78;;;14.93;53.39
76864;BME280;65834;52.364;9.754;2023-05-20T08:01:52;101746.69;;;14.97;53.79
76864;BME280;65834;52.364;9.754;2023-05-20T08:04:23;101750.06;;;14.99;53.76
76864;BME280;65834;52.364;9.754;2023-05-20T08:06:54;101753.91;;;14.90;53.63
76864;BME280;65834;52.364;9.754;2023-05-20T08:09:35;101745.56;;;14.91;53.57
76864;BME280;65834;52.364;9.754;2023-05-20T08:12:07;101743.50;;;14.93;53.79
76864;BME280;65834;52.364;9.754;2023-05-20T08:14:39;101737.38;;;15.06;53.88
76864;BME280;65834;52.364;9.754;2023-05-20T08:17:10;101739.91;;;15.07;54.03
76864;BME280;65834;52.364;9.754;2023-05-20T08:19:40;101741.22;;;15.11;53.42
76864;BME280;65834;52.364;9.754;2023-05-20T08:22:12;101739.81;;;15.15;53.54
76864;BME280;65834;52.364;9.754;2023-05-20T08:24:42;101735.00;;;15.17;53.83
76864;BME280;65834;52.364;9.754;2023-05-20T08:27:14;101736.72;;;15.18;54.02
76864;BME280;65834;52.364;9.754;2023-05-20T08:29:44;101739.88;;;15.37;53.61
76864;BME280;65834;52.364;9.754;2023-05-20T08:32:13;101738.09;;;15.29;53.46
76864;BME280;65834;52.364;9.754;2023-05-20T08:34:44;101729.34;;;15.34;53.40
76864;BME280;65834;52.364;9.754;2023-05-20T08:37:15;101731.38;;;15.46;53.60
76864;BME280;65834;52.364;9.754;2023-05-20T08:39:44;101735.50;;;15.57;53.16
76864;BME280;65834;52.364;9.754;2023-05-20T08:42:22;101733.63;;;15.57;53.07
76864;BME280;65834;52.364;9.754;2023-05-20T08:44:54;101729.25;;;15.56;53.00
76864;BME280;65834;52.364;9.754;2023-05-20T08:47:26;101718.59;;;15.47;53.37
76864;BME280;65834;52.364;9.754;2023-05-20T08:49:55;101729.41;;;15.55;53.20
76864;BME280;65834;52.364;9.754;2023-05-20T08:52:25;101727.06;;;15.52;53.56
76864;BME280;65834;52.364;9.754;2023-05-20T08:54:55;101724.56;;;15.50;53.43
76864;BME280;65834;52.364;9.754;2023-05-20T08:57:28;101731.13;;;15.56;53.65
76864;BME280;65834;52.364;9.754;2023-05-20T08:59:59;101732.78;;;15.57;53.19
76864;BME280;65834;52.364;9.754;2023-05-20T09:02:35;101730.66;;;15.52;53.75
76864;BME280;65834;52.364;9.754;2023-05-20T09:05:06;101725.66;;;15.56;53.73
76864;BME280;65834;52.364;9.754;2023-05-20T09:07:36;101728.00;;;15.59;53.99
76864;BME280;65834;52.364;9.754;2023-05-20T09:10:08;101716.03;;;15.60;53.52
76864;BME280;65834;52.364;9.754;2023-05-20T09:12:41;101720.22;;;15.56;53.80
76864;BME280;65834;52.364;9.754;2023-05-20T09:15:11;101723.84;;;15.63;53.52
76864;BME280;65834;52.364;9.754;2023-05-20T09:17:40;101727.03;;;15.66;53.13
76864;BME280;65834;52.364;9.754;2023-05-20T09:20:11;101730.41;;;15.68;53.74
76864;BME280;65834;52.364;9.754;2023-05-20T09:22:40;101714.69;;;15.70;53.50
76864;BME280;65834;52.364;9.754;2023-05-20T09:25:10;101730.22;;;15.70;53.28
76864;BME280;65834;52.364;9.754;2023-05-20T09:27:42;101732.09;;;15.69;53.38
76864;BME280;65834;52.364;9.754;2023-05-20T09:30:12;101732.47;;;15.66;53.24
76864;BME280;65834;52.364;9.754;2023-05-20T09:32:42;101731.59;;;15.59;53.41
76864;BME280;65834;52.364;9.754;2023-05-20T09:35:12;101726.56;;;15.63;53.60
76864;BME280;65834;52.364;9.754;2023-05-20T09:37:42;101725.06;;;15.60;53.39
76864;BME280;65834;52.364;9.754;2023-05-20T09:40:14;101727.22;;;15.65;53.04
76864;BME280;65834;52.364;9.754;2023-05-20T09:42:52;101720.06;;;15.64;53.10
76864;BME280;65834;52.364;9.754;2023-05-20T09:45:22;101722.34;;;15.60;53.14
76864;BME280;65834;52.364;9.754;2023-05-20T09:47:53;101718.13;;;15.58;53.04
76864;BME280;65834;52.364;9.754;2023-05-20T09:50:23;101723.41;;;15.59;53.52
76864;BME280;65834;52.364;9.754;2023-05-20T09:52:54;101720.47;;;15.61;53.00
76864;BME280;65834;52.364;9.754;2023-05-20T09:55:24;101716.31;;;15.65;53.28
76864;BME280;65834;52.364;9.754;2023-05-20T09:57:57;101713.59;;;15.65;53.25
76864;BME280;65834;52.364;9.754;2023-05-20T10:00:30;101722.81;;;15.64;53.03
76864;BME280;65834;52.364;9.754;2023-05-20T10:03:00;101723.00;;;15.62;53.49
76864;BME280;65834;52.364;9.754;2023-05-20T10:05:33;101718.19;;;15.64;53.06
76864;BME280;65834;52.364;9.754;2023-05-20T10:08:36;101725.59;;;15.70;52.84
76864;BME280;65834;52.364;9.754;2023-05-20T10:11:17;101721.19;;;15.69;53.17
76864;BME280;65834;52.364;9.754;2023-05-20T10:14:01;101724.56;;;15.71;53.15
76864;BME280;65834;52.364;9.754;2023-05-20T10:16:43;101715.16;;;15.74;53.27
76864;BME280;65834;52.364;9.754;2023-05-20T10:19:23;101718.91;;;15.73;53.37
76864;BME280;65834;52.364;9.754;2023-05-20T10:21:56;101707.16;;;15.72;53.32
76864;BME280;65834;52.364;9.754;2023-05-20T10:24:30;101708.22;;;15.71;53.53
76864;BME280;65834;52.364;9.754;2023-05-20T10:27:01;101716.78;;;15.68;54.20
76864;BME280;65834;52.364;9.754;2023-05-20T10:29:43;101721.25;;;15.76;53.76
76864;BME280;65834;52.364;9.754;2023-05-20T10:32:23;101722.28;;;15.75;53.79
76864;BME280;65834;52.364;9.754;2023-05-20T10:34:57;101718.91;;;15.73;53.64
76864;BME280;65834;52.364;9.754;2023-05-20T10:37:29;101713.44;;;15.73;53.82
76864;BME280;65834;52.364;9.754;2023-05-20T10:40:04;101707.81;;;15.75;53.67
76864;BME280;65834;52.364;9.754;2023-05-20T10:42:34;101711.19;;;15.77;53.70
76864;BME280;65834;52.364;9.754;2023-05-20T10:45:07;101703.84;;;15.77;53.78
76864;BME280;65834;52.364;9.754;2023-05-20T10:47:41;101705.41;;;15.86;53.57
76864;BME280;65834;52.364;9.754;2023-05-20T10:50:25;101704.38;;;15.87;53.69
76864;BME280;65834;52.364;9.754;2023-05-20T10:53:02;101704.38;;;15.87;53.71
76864;BME280;65834;52.364;9.754;2023-05-20T10:55:39;101700.19;;;15.91;53.56
76864;BME280;65834;52.364;9.754;2023-05-20T10:58:09;101691.38;;;15.89;53.82
76864;BME280;65834;52.364;9.754;2023-05-20T11:00:42;101687.84;;;15.95;54.15
76864;BME280;65834;52.364;9.754;2023-05-20T11:03:14;101686.38;;;15.93;53.77
76864;BME280;65834;52.364;9.754;2023-05-20T11:05:44;101684.09;;;15.96;53.61
76864;BME280;65834;52.364;9.754;2023-05-20T11:08:14;101678.66;;;16.03;53.66
76864;BME280;65834;52.364;9.754;2023-05-20T11:10:55;101684.59;;;16.06;53.88
76864;BME280;65834;52.364;9.754;2023-05-20T11:13:25;101674.50;;;16.07;53.91
76864;BME280;65834;52.364;9.754;2023-05-20T11:15:57;101683.72;;;16.06;54.12
76864;BME280;65834;52.364;9.754;2023-05-20T11:18:28;101674.72;;;16.05;53.87
76864;BME280;65834;52.364;9.754;2023-05-20T11:20:58;101679.00;;;16.14;53.83
76864;BME280;65834;52.364;9.754;2023-05-20T11:23:29;101684.47;;;16.14;53.59
76864;BME280;65834;52.364;9.754;2023-05-20T11:25:59;101671.44;;;16.16;53.66
76864;BME280;65834;52.364;9.754;2023-05-20T11:28:30;101667.22;;;16.14;53.76
76864;BME280;65834;52.364;9.754;2023-05-20T11:31:03;101661.78;;;16.14;53.60
76864;BME280;65834;52.364;9.754;2023-05-20T11:33:33;101659.50;;;16.17;53.71
76864;BME280;65834;52.364;9.754;2023-05-20T11:36:03;101659.28;;;16.19;53.88
76864;BME280;65834;52.364;9.754;2023-05-20T11:38:52;101649.03;;;16.21;53.96
76864;BME280;65834;52.364;9.754;2023-05-20T11:41:22;101650.75;;;16.28;53.82
76864;BME280;65834;52.364;9.754;2023-05-20T11:43:59;101646.19;;;16.36;53.92
76864;BME280;65834;52.364;9.754;2023-05-20T11:46:31;101651.81;;;16.34;53.60
76864;BME280;65834;52.364;9.754;2023-05-20T11:49:09;101643.09;;;16.45;53.57
76864;BME280;65834;52.364;9.754;2023-05-20T11:51:39;101637.19;;;16.42;53.55
76864;BME280;65834;52.364;9.754;2023-05-20T11:54:09;101634.84;;;16.39;53.47
76864;BME280;65834;52.364;9.754;2023-05-20T11:56:38;101631.69;;;16.35;53.72
76864;BME280;65834;52.364;9.754;2023-05-20T11:59:08;101638.84;;;16.36;53.73
76864;BME280;65834;52.364;9.754;2023-05-20T12:01:41;101628.72;;;16.37;53.70
76864;BME280;65834;52.364;9.754;2023-05-20T12:04:11;101623.66;;;16.34;54.26
76864;BME280;65834;52.364;9.754;2023-05-20T12:06:42;101628.13;;;16.41;53.95
76864;BME280;65834;52.364;9.754;2023-05-20T12:09:12;101616.81;;;16.44;53.97
76864;BME280;65834;52.364;9.754;2023-05-20T12:11:41;101621.84;;;16.41;53.85
76864;BME280;65834;52.364;9.754;2023-05-20T12:14:11;101603.78;;;16.46;54.12
76864;BME280;65834;52.364;9.754;2023-05-20T12:16:43;101602.97;;;16.52;53.89
76864;BME280;65834;52.364;9.754;2023-05-20T12:19:12;101604.53;;;16.55;54.23
76864;BME280;65834;52.364;9.754;2023-05-20T12:21:42;101598.78;;;16.50;53.68
76864;BME280;65834;52.364;9.754;2023-05-20T12:24:12;101595.25;;;16.56;53.49
76864;BME280;65834;52.364;9.754;2023-05-20T12:26:42;101601.94;;;16.53;53.66
76864;BME280;65834;52.364;9.754;2023-05-20T12:29:11;101600.53;;;16.57;53.54
76864;BME280;65834;52.364;9.754;2023-05-20T12:31:43;101609.13;;;16.54;53.55
76864;BME280;65834;52.364;9.754;2023-05-20T12:34:13;101602.19;;;16.58;53.43
76864;BME280;65834;52.364;9.754;2023-05-20T12:36:43;101602.00;;;16.60;53.46
76864;BME280;65834;52.364;9.754;2023-05-20T12:39:12;101595.69;;;16.59;53.92
76864;BME280;65834;52.364;9.754;2023-05-20T12:41:43;101599.28;;;16.60;53.50
76864;BME280;65834;52.364;9.754;2023-05-20T12:44:12;101593.19;;;16.58;54.00
76864;BME280;65834;52.364;9.754;2023-05-20T12:46:44;101591.72;;;16.62;53.66
76864;BME280;65834;52.364;9.754;2023-05-20T12:49:14;101585.22;;;16.63;53.95
76864;BME280;65834;52.364;9.754;2023-05-20T12:51:44;101576.59;;;16.59;53.85
76864;BME280;65834;52.364;9.754;2023-05-20T12:54:13;101577.84;;;16.57;53.73
76864;BME280;65834;52.364;9.754;2023-05-20T12:56:43;101575.72;;;16.59;53.79
76864;BME280;65834;52.364;9.754;2023-05-20T12:59:14;101577.47;;;16.66;53.62
76864;BME280;65834;52.364;9.754;2023-05-20T13:01:46;101577.09;;;16.76;53.55
76864;BME280;65834;52.364;9.754;2023-05-20T13:04:16;101584.19;;;16.70;53.95
76864;BME280;65834;52.364;9.754;2023-05-20T13:06:46;101574.75;;;16.73;53.67
76864;BME280;65834;52.364;9.754;2023-05-20T13:09:15;101574.78;;;16.86;53.55
76864;BME280;65834;52.364;9.754;2023-05-20T13:11:45;101578.38;;;16.93;53.77